createdAt,value
2016-12-19T17:46:02.342Z,1031.12
2016-12-19T17:46:10.115Z,1031.12
2016-12-19T17:47:20.386Z,1031.17
2016-12-19T17:48:30.246Z,1031.16
2016-12-19T17:49:40.380Z,1031.17
2016-12-19T17:50:50.965Z,1031.12
2016-12-19T17:52:01.356Z,1031.11
2016-12-19T17:53:11.755Z,1031.09
2016-12-19T17:54:21.721Z,1031.14
2016-12-19T17:55:31.871Z,1031.15
2016-12-19T17:56:42.388Z,1031.13
2016-12-19T17:57:52.797Z,1031.11
2016-12-19T17:59:03.393Z,1031.11
2016-12-19T18:00:13.925Z,1031.13
2016-12-19T18:02:53.497Z,1031.13
2016-12-19T18:07:55.363Z,1031.14
2016-12-19T18:28:33.933Z,1031.08
2016-12-19T18:29:18.366Z,1031.14
2016-12-19T18:30:29.702Z,1031.06
2016-12-19T18:31:40.029Z,1031.06
2016-12-19T18:32:50.137Z,1031.05
2016-12-19T18:40:08.710Z,1031.13
2016-12-19T18:41:19.007Z,1031.18
2016-12-19T18:42:29.493Z,1031.14
2016-12-19T18:43:39.611Z,1031.13
2016-12-19T18:44:49.983Z,1031.15
2016-12-19T19:48:56.064Z,1031.07
2016-12-19T19:50:06.964Z,1031.01
2016-12-19T19:51:16.782Z,1031.01
2016-12-19T19:58:03.969Z,1030.93
2016-12-19T19:59:14.737Z,1030.92
2016-12-19T20:00:25.052Z,1030.91
2016-12-19T20:01:35.674Z,1030.93
2016-12-19T20:02:46.139Z,1030.88
2016-12-19T20:03:56.235Z,1030.9
2016-12-19T20:05:06.467Z,1030.86
2016-12-19T20:06:17.284Z,1030.83
2016-12-19T20:07:27.823Z,1030.85
2016-12-19T20:08:37.995Z,1030.83
2016-12-19T20:09:48.568Z,1030.81
2016-12-19T20:10:59.211Z,1030.84
2016-12-19T20:12:08.784Z,1030.86
2016-12-19T20:13:19.415Z,1030.86
2016-12-19T20:14:29.714Z,1030.83
2016-12-19T20:15:39.591Z,1030.81
2016-12-19T20:16:50.241Z,1030.82
2016-12-19T20:18:00.827Z,1030.82
2016-12-19T20:19:11.387Z,1030.81
2016-12-19T20:20:21.686Z,1030.83
2016-12-19T20:21:32.269Z,1030.79
2016-12-19T20:22:42.852Z,1030.8
2016-12-19T20:23:53.003Z,1030.75
2016-12-19T20:25:03.498Z,1030.73
2016-12-19T20:26:14.075Z,1030.7
2016-12-19T20:27:24.560Z,1030.72
2016-12-19T20:28:34.724Z,1030.69
2016-12-19T20:29:45.310Z,1030.71
2016-12-19T20:30:55.141Z,1030.7
2016-12-19T20:32:05.350Z,1030.72
2016-12-19T20:33:15.910Z,1030.73
2016-12-19T20:34:25.558Z,1030.7
2016-12-19T20:35:35.682Z,1030.68
2016-12-19T20:36:45.989Z,1030.68
2016-12-19T20:37:56.500Z,1030.67
2016-12-19T20:39:06.762Z,1030.72
2016-12-19T20:40:16.961Z,1030.73
2016-12-19T20:41:27.755Z,1030.76
2016-12-19T20:42:38.282Z,1030.78
2016-12-19T20:43:48.802Z,1030.81
2016-12-19T20:44:59.469Z,1030.82
2016-12-19T20:46:09.981Z,1030.87
2016-12-19T20:47:20.117Z,1030.89
2016-12-19T20:48:30.354Z,1030.88
2016-12-19T20:49:40.869Z,1030.89
2016-12-19T20:50:51.373Z,1030.86
2016-12-19T20:52:01.869Z,1030.88
2016-12-19T20:53:11.983Z,1030.91
2016-12-19T20:54:22.428Z,1030.92
2016-12-19T20:55:32.490Z,1030.93
2016-12-19T20:56:43.183Z,1030.97
2016-12-19T20:57:53.342Z,1030.98
2016-12-19T20:59:03.249Z,1031.02
2016-12-19T21:00:13.720Z,1031.03
2016-12-19T21:01:23.640Z,1030.98
2016-12-19T21:02:33.834Z,1031.02
2016-12-19T21:03:44.539Z,1031
2016-12-19T21:04:54.740Z,1030.98
2016-12-19T21:06:05.287Z,1030.99
2016-12-19T21:07:15.747Z,1030.98
2016-12-19T21:08:25.879Z,1030.97
2016-12-19T21:09:36.063Z,1030.98
2016-12-19T21:10:45.560Z,1030.97
2016-12-19T21:11:55.991Z,1030.96
2016-12-19T21:13:05.892Z,1030.98
2016-12-19T21:14:16.502Z,1031.02
2016-12-19T21:15:26.088Z,1031.02
2016-12-19T21:16:36.541Z,1031.01
2016-12-19T21:17:46.735Z,1030.98
2016-12-19T21:18:57.075Z,1031.07
2016-12-19T21:20:06.877Z,1031.08
2016-12-19T21:21:17.021Z,1031.14
2016-12-19T21:22:26.526Z,1031.09
2016-12-19T21:23:36.842Z,1031.14
2016-12-19T21:24:47.260Z,1031.15
2016-12-19T21:25:57.377Z,1031.19
2016-12-19T21:27:07.784Z,1031.19
2016-12-19T21:28:17.573Z,1031.19
2016-12-19T21:29:27.670Z,1031.21
2016-12-19T21:30:38.080Z,1031.23
2016-12-19T21:31:48.500Z,1031.2
2016-12-19T21:32:58.690Z,1031.19
2016-12-19T21:34:08.469Z,1031.2
2016-12-19T21:35:18.919Z,1031.14
2016-12-19T21:36:29.512Z,1031.1
2016-12-19T21:37:39.412Z,1031.13
2016-12-19T21:38:50.165Z,1031.12
2016-12-19T21:40:00.360Z,1031.14
2016-12-19T21:41:10.765Z,1031.17
2016-12-19T21:42:20.833Z,1031.22
2016-12-19T21:43:30.295Z,1031.26
2016-12-19T21:44:40.450Z,1031.26
2016-12-19T21:45:50.647Z,1031.25
2016-12-19T21:47:00.866Z,1031.22
2016-12-19T21:48:11.245Z,1031.21
2016-12-19T21:49:21.317Z,1031.15
2016-12-19T21:50:31.451Z,1031.13
2016-12-19T21:51:41.524Z,1031.12
2016-12-19T21:52:51.748Z,1031.14
2016-12-19T21:54:01.819Z,1031.15
2016-12-19T21:55:11.907Z,1031.16
2016-12-19T21:56:22.294Z,1031.22
2016-12-19T21:57:32.738Z,1031.21
2016-12-19T21:58:43.126Z,1031.22
2016-12-19T21:59:53.320Z,1031.23
2016-12-19T22:01:03.108Z,1031.26
2016-12-19T22:02:12.863Z,1031.27
2016-12-19T22:03:23.254Z,1031.28
2016-12-19T22:04:32.491Z,1031.27
2016-12-19T22:05:42.581Z,1031.25
2016-12-19T22:06:52.433Z,1031.28
2016-12-19T22:08:02.597Z,1031.3
2016-12-19T22:09:12.693Z,1031.27
2016-12-19T22:10:22.132Z,1031.29
2016-12-19T22:11:31.951Z,1031.3
2016-12-19T22:12:41.580Z,1031.3
2016-12-19T22:13:51.506Z,1031.32
2016-12-19T22:15:01.874Z,1031.33
2016-12-19T22:16:11.335Z,1031.3
2016-12-19T22:17:21.406Z,1031.23
2016-12-19T22:18:31.238Z,1031.24
2016-12-19T22:19:41.292Z,1031.22
2016-12-19T22:20:51.369Z,1031.19
2016-12-19T22:22:01.772Z,1031.19
2016-12-19T22:23:11.329Z,1031.25
2016-12-19T22:24:21.154Z,1031.25
2016-12-19T22:25:31.268Z,1031.24
2016-12-19T22:26:40.927Z,1031.22
2016-12-19T22:27:50.990Z,1031.21
2016-12-19T22:29:00.742Z,1031.18
2016-12-19T22:30:10.858Z,1031.18
2016-12-19T22:31:20.601Z,1031.24
2016-12-19T22:32:30.979Z,1031.27
2016-12-19T22:33:41.016Z,1031.28
2016-12-19T22:34:51.159Z,1031.28
2016-12-19T22:36:00.964Z,1031.24
2016-12-19T22:37:11.048Z,1031.27
2016-12-19T22:38:21.417Z,1031.25
2016-12-19T22:39:31.241Z,1031.22
2016-12-19T22:40:41.448Z,1031.23
2016-12-19T22:41:51.198Z,1031.25
2016-12-19T22:43:01.364Z,1031.23
2016-12-19T22:44:11.539Z,1031.22
2016-12-19T22:45:21.679Z,1031.22
2016-12-19T22:46:32.062Z,1031.25
2016-12-19T22:47:42.128Z,1031.22
2016-12-19T22:48:51.654Z,1031.26
2016-12-19T22:50:01.397Z,1031.25
2016-12-19T22:51:11.781Z,1031.26
2016-12-19T22:52:21.916Z,1031.29
2016-12-19T22:53:31.722Z,1031.26
2016-12-19T22:54:41.568Z,1031.29
2016-12-19T22:55:51.454Z,1031.29
2016-12-19T22:57:00.937Z,1031.32
2016-12-19T22:58:10.767Z,1031.35
2016-12-19T22:59:20.551Z,1031.33
2016-12-19T23:00:30.732Z,1031.28
2016-12-19T23:01:41.376Z,1031.23
2016-12-19T23:02:51.745Z,1031.22
2016-12-19T23:04:02.017Z,1031.23
2016-12-19T23:05:12.482Z,1031.25
2016-12-19T23:06:21.915Z,1031.26
2016-12-19T23:07:30.725Z,1031.26
2016-12-19T23:08:40.692Z,1031.26
2016-12-19T23:09:50.776Z,1031.22
2016-12-19T23:11:00.835Z,1031.2
2016-12-19T23:12:10.680Z,1031.1
2016-12-19T23:13:20.797Z,1031.08
2016-12-19T23:14:30.286Z,1031.06
2016-12-19T23:15:40.055Z,1031.08
2016-12-19T23:16:50.137Z,1031.13
2016-12-19T23:18:00.059Z,1031.1
2016-12-19T23:19:09.655Z,1031.12
2016-12-19T23:20:20.052Z,1031.03
2016-12-19T23:21:30.033Z,1031.05
2016-12-19T23:22:39.843Z,1030.98
2016-12-19T23:23:49.592Z,1030.98
2016-12-19T23:24:59.668Z,1031
2016-12-19T23:26:10.259Z,1031.06
2016-12-19T23:27:20.328Z,1031.1
2016-12-19T23:28:30.106Z,1031.09
2016-12-19T23:29:39.538Z,1031.08
2016-12-19T23:30:49.836Z,1031.07
2016-12-19T23:32:00.091Z,1031.04
2016-12-19T23:33:09.850Z,1031.04
2016-12-19T23:34:19.889Z,1031.08
2016-12-19T23:35:29.731Z,1031.07
2016-12-19T23:36:39.891Z,1031.01
2016-12-19T23:37:50.269Z,1030.96
2016-12-19T23:39:00.006Z,1030.95
2016-12-19T23:40:09.755Z,1030.95
2016-12-19T23:41:19.508Z,1030.97
2016-12-19T23:42:28.941Z,1030.98
2016-12-19T23:43:38.411Z,1030.93
2016-12-19T23:44:48.248Z,1030.89
2016-12-19T23:45:58.487Z,1030.89
2016-12-19T23:47:08.579Z,1030.86
2016-12-19T23:48:18.341Z,1030.88
2016-12-19T23:49:27.783Z,1030.87
2016-12-19T23:50:37.220Z,1030.88
2016-12-19T23:51:46.962Z,1030.82
2016-12-19T23:52:56.448Z,1030.79
2016-12-19T23:54:06.524Z,1030.76
2016-12-19T23:55:16.028Z,1030.75
2016-12-19T23:56:26.169Z,1030.8
2016-12-19T23:57:36.534Z,1030.8
